Yale, Washington
Current Conditions -  °F | °C
As of 3:35 AM on Saturday 20 Dec 2014 (Local Time) from KKLS Reporting Station
Overcast Overcast  
Wind Chill: 42°   Ceiling: 2300
Heat Index: 48°   Visibility: 10mi
Dew Point: 43°   Wind: 17mph
Humidity: 82%   Direction: 150°SSE
Pressure: 29.8"   Gusts: 26mph
Location:  46.027°N, 122.456°W
Report Text: KKLS 201135Z 15015G23KT 120V180 10SM OVC023 09/06 A2980 RMK AO1
Loading
Personal Weather Stations






























Interactive Weather Map New forecast layout! Learn more

10-Day Weather Forecast

Advertisements
Track Severe Weather on mobile